AirNav   Everest Fuels
 
 497 users online  

0MO5 Joe D Lewis Airport
Edina, Missouri, USA

GOING TO EDINA?


FAA INFORMATION EFFECTIVE 16 JULY 2020

Location

FAA Identifier: 0MO5
Lat/Long: 40-08-00.1410N 092-06-00.6430W
40-08.002350N 092-06.010717W
40.1333725,-92.1001786
(estimated)
Elevation: 780 ft. / 238 m (estimated)
Variation: 03E (1985)
From city: 4 miles SE of EDINA, MO
Time zone: UTC -5 (UTC -6 during Standard Time)
Zip code: 63537

Airport Operations

Airport use: Private use. Permission required prior to landing
Activation date: 04/1964
Control tower: no
ARTCC: KANSAS CITY CENTER
FSS: COLUMBIA FLIGHT SERVICE STATION
Attendance: UNATNDD
Segmented circle: no

Nearby radio navigation aids

VOR radial/distance  VOR name  Freq  Var
IRKr084/22.5KIRKSVILLE VORTAC114.6006E
MCMr025/33.7MACON VOR/DME112.9006E

 
NDB name  Hdg/Dist  Freq  Var  ID
KEOKUK235/36.436602EEOK . --- -.-
BLOOMFIELD156/39.726902EBEX -... . -..-

Airport Services

Airframe service: NONE
Powerplant service: NONE

Runway Information

Runway N/S

Dimensions: 1800 x 60 ft. / 549 x 18 m
Surface: turf
Operational restrictions: MAY BE SOFT WITH TALL GRASS TIL JULY.
RUNWAY N  RUNWAY S
Traffic pattern: leftleft
Obstructions: none20 ft. pline, 300 ft. from runway

Airport Ownership and Management from official FAA records

Ownership: Privately-owned
Owner: JOE D LEWIS
ROUTE 3
EDINA, MO 63537
Phone 816-397-3300
Manager: JOE D LEWIS
ROUTE 3
EDINA, MO 63537
Phone 816-397-3300

Additional Remarks

FOR CD CTC KANSAS CITY ARTCC AT 913-254-8508.

Instrument Procedures

There are no published instrument procedures at 0MO5.

Some nearby airports with instrument procedures:

6M6 - Lewis County Regional Airport (19 nm E)
03D - Memphis Memorial Airport (20 nm N)
KIRK - Kirksville Regional Airport (21 nm W)
K89 - Macon-Fower Memorial Airport (29 nm SW)
K52 - Cpt Ben Smith Airfield - Monroe City (35 nm SE)
 
Loc | Ops | Rwys | IFR | FBO | Links
Com | Nav | Svcs | Stats | Notes
Area around 0MO5 (Joe D Lewis Airport)
 
Road maps at: MapQuest Bing Google
 
Aerial photo
No photo
 
Sectional chart

 
Airport distance calculator
Flying to Joe D Lewis Airport? Find the distance to fly.

From to 0MO5

Sunrise and sunset
Times for 10-Aug-2020
 Local
(UTC-5)
 Zulu
(UTC)
Morning civil twilight05:4710:47
Sunrise06:1711:17
Sunset20:1001:10
Evening civil twilight20:4001:40

Current date and time
Zulu (UTC)  10-Aug-2020 05:49:47
Local (UTC-5)  10-Aug-2020 00:49:47
 
METAR
KIRK 
21nm W 
100455Z AUTO 18007KT 10SM CLR 23/21 A2995 RMK AO2 SLP137 T02280211
KEOK 
37nm NE 
100535Z AUTO 00000KT 10SM CLR 25/24 A2995 RMK AO2
KHAE 
39nm SE 
100535Z AUTO 16005KT 7SM CLR 25/23 A2997 RMK AO2
TAF
KUIN 
43nm E 
091727Z 0918/1018 20012KT P6SM FEW080 BKN250 FM100800 19008KT P6SM VCTS BKN080CB WS020/23035KT FM101300 21008KT P6SM BKN080
NOTAMs
Click for the latest NOTAMs
NOTAMs are issued by the DoD/FAA and will open in a separate window not controlled by AirNav.

 

 
 

Would you like to see your business listed on this page?

 If your business provides an interesting product or service to pilots, flight crews, aircraft, or users of the Joe D Lewis Airport, you should consider listing it here.  To start the listing process, click on the button below
 
Add a business
 

Other Pages about Joe D Lewis Airport

Update a link
 
Copyright © AirNav, LLC. All rights reserved. Privacy Policy  Contact